sensor_id;sensor_type;location;lat;lon;timestamp;temperature;humidity
2957;DHT22;1488;51.548;7.222;2022-09-30T00:00:42;23.90;68.10
2957;DHT22;1488;51.548;7.222;2022-09-30T00:03:09;24.00;68.20
2957;DHT22;1488;51.548;7.222;2022-09-30T00:05:36;24.00;68.20
2957;DHT22;1488;51.548;7.222;2022-09-30T00:08:05;23.90;68.00
2957;DHT22;1488;51.548;7.222;2022-09-30T00:10:32;23.90;68.00
2957;DHT22;1488;51.548;7.222;2022-09-30T00:12:59;23.90;68.00
2957;DHT22;1488;51.548;7.222;2022-09-30T00:15:26;23.90;68.00
2957;DHT22;1488;51.548;7.222;2022-09-30T00:17:53;23.90;68.00
2957;DHT22;1488;51.548;7.222;2022-09-30T00:20:20;23.90;67.90
2957;DHT22;1488;51.548;7.222;2022-09-30T00:22:47;23.90;67.90
2957;DHT22;1488;51.548;7.222;2022-09-30T00:25:17;23.90;67.90
2957;DHT22;1488;51.548;7.222;2022-09-30T00:27:44;23.90;67.90
2957;DHT22;1488;51.548;7.222;2022-09-30T00:30:11;23.90;67.90
2957;DHT22;1488;51.548;7.222;2022-09-30T00:32:38;23.90;68.70
2957;DHT22;1488;51.548;7.222;2022-09-30T00:38:27;23.90;67.70
2957;DHT22;1488;51.548;7.222;2022-09-30T00:40:57;23.90;67.90
2957;DHT22;1488;51.548;7.222;2022-09-30T00:43:39;23.90;67.90
2957;DHT22;1488;51.548;7.222;2022-09-30T00:46:16;23.90;67.70
2957;DHT22;1488;51.548;7.222;2022-09-30T00:48:44;23.90;67.80
2957;DHT22;1488;51.548;7.222;2022-09-30T00:51:15;23.90;67.70
2957;DHT22;1488;51.548;7.222;2022-09-30T00:53:46;23.90;67.70
2957;DHT22;1488;51.548;7.222;2022-09-30T00:56:20;23.90;67.60
2957;DHT22;1488;51.548;7.222;2022-09-30T00:58:51;23.90;67.70
2957;DHT22;1488;51.548;7.222;2022-09-30T01:01:20;23.90;67.60
2957;DHT22;1488;51.548;7.222;2022-09-30T01:03:52;23.80;67.50
2957;DHT22;1488;51.548;7.222;2022-09-30T01:06:21;23.80;67.50
2957;DHT22;1488;51.548;7.222;2022-09-30T01:08:49;23.80;67.50
2957;DHT22;1488;51.548;7.222;2022-09-30T01:11:18;23.80;67.50
2957;DHT22;1488;51.548;7.222;2022-09-30T01:13:47;23.80;67.40
2957;DHT22;1488;51.548;7.222;2022-09-30T01:16:36;23.80;67.40
2957;DHT22;1488;51.548;7.222;2022-09-30T01:19:21;23.90;67.40
2957;DHT22;1488;51.548;7.222;2022-09-30T01:25:15;23.90;67.40
2957;DHT22;1488;51.548;7.222;2022-09-30T01:31:04;23.80;67.30
2957;DHT22;1488;51.548;7.222;2022-09-30T01:33:41;23.80;67.40
2957;DHT22;1488;51.548;7.222;2022-09-30T01:36:21;23.80;67.50
2957;DHT22;1488;51.548;7.222;2022-09-30T01:38:57;23.80;67.40
2957;DHT22;1488;51.548;7.222;2022-09-30T01:41:37;23.80;67.40
2957;DHT22;1488;51.548;7.222;2022-09-30T01:44:12;23.80;67.30
2957;DHT22;1488;51.548;7.222;2022-09-30T01:46:48;23.80;67.40
2957;DHT22;1488;51.548;7.222;2022-09-30T01:49:24;23.80;67.30
2957;DHT22;1488;51.548;7.222;2022-09-30T01:51:58;23.80;67.30
2957;DHT22;1488;51.548;7.222;2022-09-30T01:54:33;23.80;67.30
2957;DHT22;1488;51.548;7.222;2022-09-30T01:57:08;23.80;67.30
2957;DHT22;1488;51.548;7.222;2022-09-30T01:59:43;23.80;67.30
2957;DHT22;1488;51.548;7.222;2022-09-30T02:02:16;23.80;67.30
2957;DHT22;1488;51.548;7.222;2022-09-30T02:04:47;23.80;67.30
2957;DHT22;1488;51.548;7.222;2022-09-30T02:07:21;23.80;67.20
2957;DHT22;1488;51.548;7.222;2022-09-30T02:09:53;23.80;67.10
2957;DHT22;1488;51.548;7.222;2022-09-30T02:12:25;23.80;67.10
2957;DHT22;1488;51.548;7.222;2022-09-30T02:14:58;23.80;67.10
2957;DHT22;1488;51.548;7.222;2022-09-30T02:17:31;23.80;67.10
2957;DHT22;1488;51.548;7.222;2022-09-30T02:20:02;23.80;67.10
2957;DHT22;1488;51.548;7.222;2022-09-30T02:22:35;23.80;67.10
2957;DHT22;1488;51.548;7.222;2022-09-30T02:25:08;23.80;67.10
2957;DHT22;1488;51.548;7.222;2022-09-30T02:27:43;23.70;66.90
2957;DHT22;1488;51.548;7.222;2022-09-30T02:30:12;23.80;67.00
2957;DHT22;1488;51.548;7.222;2022-09-30T02:32:45;23.70;66.90
2957;DHT22;1488;51.548;7.222;2022-09-30T02:38:38;23.70;66.80
2957;DHT22;1488;51.548;7.222;2022-09-30T02:41:09;23.70;67.00
2957;DHT22;1488;51.548;7.222;2022-09-30T02:43:37;23.70;67.00
2957;DHT22;1488;51.548;7.222;2022-09-30T02:46:09;23.80;67.10
2957;DHT22;1488;51.548;7.222;2022-09-30T02:48:46;23.70;66.90
2957;DHT22;1488;51.548;7.222;2022-09-30T02:51:18;23.70;66.90
2957;DHT22;1488;51.548;7.222;2022-09-30T02:53:51;23.70;66.90
2957;DHT22;1488;51.548;7.222;2022-09-30T02:56:26;23.70;66.10
2957;DHT22;1488;51.548;7.222;2022-09-30T02:58:56;23.60;65.10
2957;DHT22;1488;51.548;7.222;2022-09-30T03:01:23;23.60;64.90
2957;DHT22;1488;51.548;7.222;2022-09-30T03:03:54;23.60;65.60
2957;DHT22;1488;51.548;7.222;2022-09-30T03:06:22;23.40;65.10
2957;DHT22;1488;51.548;7.222;2022-09-30T03:08:51;23.60;65.70
2957;DHT22;1488;51.548;7.222;2022-09-30T03:11:22;23.50;65.80
2957;DHT22;1488;51.548;7.222;2022-09-30T03:17:41;23.60;65.80
2957;DHT22;1488;51.548;7.222;2022-09-30T03:27:00;23.40;65.60
2957;DHT22;1488;51.548;7.222;2022-09-30T03:29:39;23.50;65.60
2957;DHT22;1488;51.548;7.222;2022-09-30T03:32:21;23.50;66.00
2957;DHT22;1488;51.548;7.222;2022-09-30T03:35:00;23.60;65.50
2957;DHT22;1488;51.548;7.222;2022-09-30T03:37:38;23.50;65.80
2957;DHT22;1488;51.548;7.222;2022-09-30T03:40:14;23.60;66.10
2957;DHT22;1488;51.548;7.222;2022-09-30T03:42:45;23.50;66.10
2957;DHT22;1488;51.548;7.222;2022-09-30T03:45:19;23.50;66.10
2957;DHT22;1488;51.548;7.222;2022-09-30T03:47:52;23.50;66.10
2957;DHT22;1488;51.548;7.222;2022-09-30T03:50:22;23.50;66.10
2957;DHT22;1488;51.548;7.222;2022-09-30T03:52:52;23.50;66.10
2957;DHT22;1488;51.548;7.222;2022-09-30T03:55:21;23.50;66.10
2957;DHT22;1488;51.548;7.222;2022-09-30T03:57:48;23.50;66.10
2957;DHT22;1488;51.548;7.222;2022-09-30T04:00:19;23.60;66.30
2957;DHT22;1488;51.548;7.222;2022-09-30T04:02:46;23.50;66.10
2957;DHT22;1488;51.548;7.222;2022-09-30T04:05:13;23.50;66.10
2957;DHT22;1488;51.548;7.222;2022-09-30T04:07:40;23.50;66.10
2957;DHT22;1488;51.548;7.222;2022-09-30T04:10:09;23.50;66.20
2957;DHT22;1488;51.548;7.222;2022-09-30T04:12:36;23.50;66.20
2957;DHT22;1488;51.548;7.222;2022-09-30T04:15:03;23.50;66.20
2957;DHT22;1488;51.548;7.222;2022-09-30T04:17:31;23.50;66.10
2957;DHT22;1488;51.548;7.222;2022-09-30T04:19:57;23.50;66.10
2957;DHT22;1488;51.548;7.222;2022-09-30T04:22:24;23.50;66.10
2957;DHT22;1488;51.548;7.222;2022-09-30T04:24:51;23.50;66.10
2957;DHT22;1488;51.548;7.222;2022-09-30T04:27:20;23.50;66.10
2957;DHT22;1488;51.548;7.222;2022-09-30T04:29:47;23.50;66.00
2957;DHT22;1488;51.548;7.222;2022-09-30T04:32:14;23.50;66.10
2957;DHT22;1488;51.548;7.222;2022-09-30T04:34:41;23.50;66.00
2957;DHT22;1488;51.548;7.222;2022-09-30T04:37:08;23.50;66.10
2957;DHT22;1488;51.548;7.222;2022-09-30T04:39:35;23.50;66.10
2957;DHT22;1488;51.548;7.222;2022-09-30T04:42:02;23.50;66.10
2957;DHT22;1488;51.548;7.222;2022-09-30T04:44:31;23.60;66.10
2957;DHT22;1488;51.548;7.222;2022-09-30T04:47:00;23.50;66.00
2957;DHT22;1488;51.548;7.222;2022-09-30T04:49:27;23.50;66.10
2957;DHT22;1488;51.548;7.222;2022-09-30T04:51:54;23.50;66.00
2957;DHT22;1488;51.548;7.222;2022-09-30T04:54:21;23.50;66.00
2957;DHT22;1488;51.548;7.222;2022-09-30T04:56:49;23.50;66.00
2957;DHT22;1488;51.548;7.222;2022-09-30T04:59:16;23.50;66.00
2957;DHT22;1488;51.548;7.222;2022-09-30T05:01:45;23.50;66.00
2957;DHT22;1488;51.548;7.222;2022-09-30T05:04:12;23.50;66.00
2957;DHT22;1488;51.548;7.222;2022-09-30T05:06:40;23.50;66.00
2957;DHT22;1488;51.548;7.222;2022-09-30T05:09:07;23.50;66.00
2957;DHT22;1488;51.548;7.222;2022-09-30T05:11:34;23.50;65.90
2957;DHT22;1488;51.548;7.222;2022-09-30T05:14:05;23.60;66.00
2957;DHT22;1488;51.548;7.222;2022-09-30T05:16:33;23.50;65.90
2957;DHT22;1488;51.548;7.222;2022-09-30T05:19:02;23.50;65.90
2957;DHT22;1488;51.548;7.222;2022-09-30T05:21:29;23.50;65.90
2957;DHT22;1488;51.548;7.222;2022-09-30T05:23:56;23.50;65.90
2957;DHT22;1488;51.548;7.222;2022-09-30T05:26:23;23.50;65.90
2957;DHT22;1488;51.548;7.222;2022-09-30T05:28:50;23.50;65.90
2957;DHT22;1488;51.548;7.222;2022-09-30T05:31:18;23.40;65.80
2957;DHT22;1488;51.548;7.222;2022-09-30T05:33:45;23.40;65.80
2957;DHT22;1488;51.548;7.222;2022-09-30T05:36:15;23.40;65.70
2957;DHT22;1488;51.548;7.222;2022-09-30T05:38:42;23.40;65.80
2957;DHT22;1488;51.548;7.222;2022-09-30T05:41:10;23.40;65.80
2957;DHT22;1488;51.548;7.222;2022-09-30T05:43:39;23.40;65.90
2957;DHT22;1488;51.548;7.222;2022-09-30T05:46:06;23.40;65.90
2957;DHT22;1488;51.548;7.222;2022-09-30T05:48:33;23.40;65.80
2957;DHT22;1488;51.548;7.222;2022-09-30T05:51:01;23.40;65.80
2957;DHT22;1488;51.548;7.222;2022-09-30T05:53:30;23.40;65.80
2957;DHT22;1488;51.548;7.222;2022-09-30T05:55:57;23.50;65.90
2957;DHT22;1488;51.548;7.222;2022-09-30T05:58:25;23.40;65.80
2957;DHT22;1488;51.548;7.222;2022-09-30T06:00:52;23.40;65.80
2957;DHT22;1488;51.548;7.222;2022-09-30T06:03:33;23.40;65.70
2957;DHT22;1488;51.548;7.222;2022-09-30T06:06:00;23.40;65.80
2957;DHT22;1488;51.548;7.222;2022-09-30T06:08:27;23.50;65.90
2957;DHT22;1488;51.548;7.222;2022-09-30T06:10:56;23.50;65.70
2957;DHT22;1488;51.548;7.222;2022-09-30T06:13:24;23.40;65.70
2957;DHT22;1488;51.548;7.222;2022-09-30T06:15:55;23.40;65.60
2957;DHT22;1488;51.548;7.222;2022-09-30T06:18:22;23.40;65.60
2957;DHT22;1488;51.548;7.222;2022-09-30T06:20:50;23.50;65.80
2957;DHT22;1488;51.548;7.222;2022-09-30T06:23:20;23.40;65.80
2957;DHT22;1488;51.548;7.222;2022-09-30T06:25:49;23.40;65.80
2957;DHT22;1488;51.548;7.222;2022-09-30T06:28:17;23.40;66.70
2957;DHT22;1488;51.548;7.222;2022-09-30T06:30:45;23.40;65.80
2957;DHT22;1488;51.548;7.222;2022-09-30T06:33:13;23.40;65.80
2957;DHT22;1488;51.548;7.222;2022-09-30T06:35:40;23.40;65.90
2957;DHT22;1488;51.548;7.222;2022-09-30T06:38:07;23.40;65.90
2957;DHT22;1488;51.548;7.222;2022-09-30T06:40:35;23.40;65.90
2957;DHT22;1488;51.548;7.222;2022-09-30T06:43:03;23.40;66.00
2957;DHT22;1488;51.548;7.222;2022-09-30T06:45:35;23.40;66.10
2957;DHT22;1488;51.548;7.222;2022-09-30T06:48:03;23.40;66.10
2957;DHT22;1488;51.548;7.222;2022-09-30T06:50:32;23.20;66.00
2957;DHT22;1488;51.548;7.222;2022-09-30T06:52:59;23.40;66.40
2957;DHT22;1488;51.548;7.222;2022-09-30T06:55:27;23.40;66.30
2957;DHT22;1488;51.548;7.222;2022-09-30T06:57:55;23.50;66.50
2957;DHT22;1488;51.548;7.222;2022-09-30T07:00:23;23.50;66.50
2957;DHT22;1488;51.548;7.222;2022-09-30T07:02:53;23.60;66.60
2957;DHT22;1488;51.548;7.222;2022-09-30T07:05:24;23.50;66.50
2957;DHT22;1488;51.548;7.222;2022-09-30T07:08:10;23.50;66.40
2957;DHT22;1488;51.548;7.222;2022-09-30T07:10:37;23.50;66.50
2957;DHT22;1488;51.548;7.222;2022-09-30T07:13:04;23.50;66.50
2957;DHT22;1488;51.548;7.222;2022-09-30T07:15:31;23.50;66.30
2957;DHT22;1488;51.548;7.222;2022-09-30T07:17:59;23.50;65.80
2957;DHT22;1488;51.548;7.222;2022-09-30T07:20:26;23.50;66.00
2957;DHT22;1488;51.548;7.222;2022-09-30T07:22:53;23.50;65.80
2957;DHT22;1488;51.548;7.222;2022-09-30T07:25:23;23.60;65.50
2957;DHT22;1488;51.548;7.222;2022-09-30T07:27:50;23.50;65.40
2957;DHT22;1488;51.548;7.222;2022-09-30T07:30:17;23.50;64.90
2957;DHT22;1488;51.548;7.222;2022-09-30T07:32:44;23.50;64.70
2957;DHT22;1488;51.548;7.222;2022-09-30T07:35:12;23.60;64.90
2957;DHT22;1488;51.548;7.222;2022-09-30T07:37:39;23.50;64.60
2957;DHT22;1488;51.548;7.222;2022-09-30T07:40:07;23.60;64.20
2957;DHT22;1488;51.548;7.222;2022-09-30T07:42:36;23.60;64.80
2957;DHT22;1488;51.548;7.222;2022-09-30T07:45:06;23.60;63.90
2957;DHT22;1488;51.548;7.222;2022-09-30T07:47:32;23.60;63.70
2957;DHT22;1488;51.548;7.222;2022-09-30T07:49:59;23.60;63.60
2957;DHT22;1488;51.548;7.222;2022-09-30T07:52:27;23.60;63.50
2957;DHT22;1488;51.548;7.222;2022-09-30T07:54:54;23.80;63.70
2957;DHT22;1488;51.548;7.222;2022-09-30T07:57:21;23.60;63.60
2957;DHT22;1488;51.548;7.222;2022-09-30T07:59:48;23.60;63.70
2957;DHT22;1488;51.548;7.222;2022-09-30T08:02:17;23.60;63.90
2957;DHT22;1488;51.548;7.222;2022-09-30T08:04:44;23.70;64.20
2957;DHT22;1488;51.548;7.222;2022-09-30T08:07:12;23.70;64.20
2957;DHT22;1488;51.548;7.222;2022-09-30T08:09:40;23.70;64.30
2957;DHT22;1488;51.548;7.222;2022-09-30T08:12:08;23.70;64.30
2957;DHT22;1488;51.548;7.222;2022-09-30T08:14:35;23.70;64.40
2957;DHT22;1488;51.548;7.222;2022-09-30T08:17:01;23.70;64.50
2957;DHT22;1488;51.548;7.222;2022-09-30T08:19:29;23.80;64.50
2957;DHT22;1488;51.548;7.222;2022-09-30T08:21:58;23.80;64.40
2957;DHT22;1488;51.548;7.222;2022-09-30T08:24:25;23.90;64.30
2957;DHT22;1488;51.548;7.222;2022-09-30T08:26:54;24.00;64.40
2957;DHT22;1488;51.548;7.222;2022-09-30T08:29:21;24.00;64.10
2957;DHT22;1488;51.548;7.222;2022-09-30T08:31:48;24.10;64.20
2957;DHT22;1488;51.548;7.222;2022-09-30T08:34:15;24.10;64.10
2957;DHT22;1488;51.548;7.222;2022-09-30T08:36:42;24.40;64.30
2957;DHT22;1488;51.548;7.222;2022-09-30T08:39:10;24.20;64.10
2957;DHT22;1488;51.548;7.222;2022-09-30T08:42:09;24.20;64.00
2957;DHT22;1488;51.548;7.222;2022-09-30T08:44:41;24.20;64.10
2957;DHT22;1488;51.548;7.222;2022-09-30T08:47:39;24.20;64.20
2957;DHT22;1488;51.548;7.222;2022-09-30T08:50:14;24.30;64.20
2957;DHT22;1488;51.548;7.222;2022-09-30T08:52:43;24.20;64.30
2957;DHT22;1488;51.548;7.222;2022-09-30T08:58:14;24.50;64.60
2957;DHT22;1488;51.548;7.222;2022-09-30T09:00:42;24.30;64.40
2957;DHT22;1488;51.548;7.222;2022-09-30T09:03:11;24.30;64.50
2957;DHT22;1488;51.548;7.222;2022-09-30T09:05:45;24.40;64.70
2957;DHT22;1488;51.548;7.222;2022-09-30T09:08:23;24.30;64.60
2957;DHT22;1488;51.548;7.222;2022-09-30T09:10:58;24.40;64.60
2957;DHT22;1488;51.548;7.222;2022-09-30T09:13:43;24.30;64.00
2957;DHT22;1488;51.548;7.222;2022-09-30T09:16:18;24.40;64.10
2957;DHT22;1488;51.548;7.222;2022-09-30T09:18:56;24.40;64.00
2957;DHT22;1488;51.548;7.222;2022-09-30T09:21:31;24.50;64.00
2957;DHT22;1488;51.548;7.222;2022-09-30T09:24:01;24.40;64.00
2957;DHT22;1488;51.548;7.222;2022-09-30T09:26:30;24.40;64.00
2957;DHT22;1488;51.548;7.222;2022-09-30T09:29:14;24.40;64.00
2957;DHT22;1488;51.548;7.222;2022-09-30T09:31:45;24.50;63.90
2957;DHT22;1488;51.548;7.222;2022-09-30T09:34:13;24.40;63.90
2957;DHT22;1488;51.548;7.222;2022-09-30T09:36:52;24.40;63.80
2957;DHT22;1488;51.548;7.222;2022-09-30T09:39:52;24.50;63.80
2957;DHT22;1488;51.548;7.222;2022-09-30T09:42:33;24.50;63.90
2957;DHT22;1488;51.548;7.222;2022-09-30T09:45:10;24.50;63.80
2957;DHT22;1488;51.548;7.222;2022-09-30T09:47:39;24.50;63.80
2957;DHT22;1488;51.548;7.222;2022-09-30T09:50:15;24.50;63.90
2957;DHT22;1488;51.548;7.222;2022-09-30T09:52:56;24.50;63.80
2957;DHT22;1488;51.548;7.222;2022-09-30T09:55:26;24.50;63.80
2957;DHT22;1488;51.548;7.222;2022-09-30T09:58:06;24.50;64.00
2957;DHT22;1488;51.548;7.222;2022-09-30T10:00:34;24.50;64.00
2957;DHT22;1488;51.548;7.222;2022-09-30T10:03:20;24.50;64.00
2957;DHT22;1488;51.548;7.222;2022-09-30T10:06:00;24.50;64.10
2957;DHT22;1488;51.548;7.222;2022-09-30T10:08:27;24.50;63.50
2957;DHT22;1488;51.548;7.222;2022-09-30T10:11:04;24.50;63.70
2957;DHT22;1488;51.548;7.222;2022-09-30T10:13:40;24.60;63.80
2957;DHT22;1488;51.548;7.222;2022-09-30T10:16:25;24.60;64.10
2957;DHT22;1488;51.548;7.222;2022-09-30T10:18:53;24.60;63.90
2957;DHT22;1488;51.548;7.222;2022-09-30T10:21:22;24.60;64.20
2957;DHT22;1488;51.548;7.222;2022-09-30T10:23:49;24.60;63.80
2957;DHT22;1488;51.548;7.222;2022-09-30T10:26:18;24.60;63.90
2957;DHT22;1488;51.548;7.222;2022-09-30T10:28:47;24.70;63.80
2957;DHT22;1488;51.548;7.222;2022-09-30T10:31:21;24.70;63.90
2957;DHT22;1488;51.548;7.222;2022-09-30T10:34:08;24.70;64.20
2957;DHT22;1488;51.548;7.222;2022-09-30T10:36:38;24.70;64.10
2957;DHT22;1488;51.548;7.222;2022-09-30T10:39:08;24.70;64.00
2957;DHT22;1488;51.548;7.222;2022-09-30T10:42:02;24.70;64.10
2957;DHT22;1488;51.548;7.222;2022-09-30T10:44:42;24.70;64.00
2957;DHT22;1488;51.548;7.222;2022-09-30T10:47:23;24.80;64.40
2957;DHT22;1488;51.548;7.222;2022-09-30T10:49:53;24.80;64.50
2957;DHT22;1488;51.548;7.222;2022-09-30T10:52:23;24.80;64.30
2957;DHT22;1488;51.548;7.222;2022-09-30T10:54:52;24.80;64.30
2957;DHT22;1488;51.548;7.222;2022-09-30T10:57:31;24.80;64.30
2957;DHT22;1488;51.548;7.222;2022-09-30T11:00:02;24.80;64.40
2957;DHT22;1488;51.548;7.222;2022-09-30T11:02:34;24.80;64.50
2957;DHT22;1488;51.548;7.222;2022-09-30T11:05:10;24.80;64.20
2957;DHT22;1488;51.548;7.222;2022-09-30T11:07:41;24.80;64.40
2957;DHT22;1488;51.548;7.222;2022-09-30T11:10:26;25.00;64.30
2957;DHT22;1488;51.548;7.222;2022-09-30T11:13:09;24.80;64.50
2957;DHT22;1488;51.548;7.222;2022-09-30T11:15:53;24.80;64.30
2957;DHT22;1488;51.548;7.222;2022-09-30T11:18:34;24.80;64.60
2957;DHT22;1488;51.548;7.222;2022-09-30T11:21:07;24.80;64.40
2957;DHT22;1488;51.548;7.222;2022-09-30T11:23:39;24.80;64.80
2957;DHT22;1488;51.548;7.222;2022-09-30T11:26:15;24.80;65.50
2957;DHT22;1488;51.548;7.222;2022-09-30T11:29:14;24.80;64.70
2957;DHT22;1488;51.548;7.222;2022-09-30T11:32:04;24.80;64.70
2957;DHT22;1488;51.548;7.222;2022-09-30T11:34:47;24.80;64.60
2957;DHT22;1488;51.548;7.222;2022-09-30T11:37:39;24.80;65.00
2957;DHT22;1488;51.548;7.222;2022-09-30T11:40:28;24.80;65.00
2957;DHT22;1488;51.548;7.222;2022-09-30T11:43:01;24.80;65.00
2957;DHT22;1488;51.548;7.222;2022-09-30T11:45:38;24.70;64.60
2957;DHT22;1488;51.548;7.222;2022-09-30T11:48:28;24.80;64.70
2957;DHT22;1488;51.548;7.222;2022-09-30T11:51:08;24.80;64.80
2957;DHT22;1488;51.548;7.222;2022-09-30T11:53:45;24.70;64.90
2957;DHT22;1488;51.548;7.222;2022-09-30T11:56:31;24.70;65.00
2957;DHT22;1488;51.548;7.222;2022-09-30T11:59:05;24.80;65.10
2957;DHT22;1488;51.548;7.222;2022-09-30T12:01:38;24.70;65.20
2957;DHT22;1488;51.548;7.222;2022-09-30T12:04:10;24.80;65.30
2957;DHT22;1488;51.548;7.222;2022-09-30T12:06:42;24.80;65.30
2957;DHT22;1488;51.548;7.222;2022-09-30T12:09:17;24.80;65.40
2957;DHT22;1488;51.548;7.222;2022-09-30T12:11:49;24.80;65.50
2957;DHT22;1488;51.548;7.222;2022-09-30T12:14:22;24.80;65.60
2957;DHT22;1488;51.548;7.222;2022-09-30T12:16:50;24.90;65.70
2957;DHT22;1488;51.548;7.222;2022-09-30T12:19:21;24.90;65.80
2957;DHT22;1488;51.548;7.222;2022-09-30T12:21:55;24.90;65.80
2957;DHT22;1488;51.548;7.222;2022-09-30T12:24:29;25.00;65.90
2957;DHT22;1488;51.548;7.222;2022-09-30T12:26:58;25.00;65.90
2957;DHT22;1488;51.548;7.222;2022-09-30T12:29:29;25.00;66.00
2957;DHT22;1488;51.548;7.222;2022-09-30T12:35:44;25.10;66.00
2957;DHT22;1488;51.548;7.222;2022-09-30T12:38:30;25.10;66.10
2957;DHT22;1488;51.548;7.222;2022-09-30T12:41:05;25.10;66.10
2957;DHT22;1488;51.548;7.222;2022-09-30T12:44:01;25.10;66.10
2957;DHT22;1488;51.548;7.222;2022-09-30T12:46:46;25.20;66.00
2957;DHT22;1488;51.548;7.222;2022-09-30T12:49:20;25.30;66.10
2957;DHT22;1488;51.548;7.222;2022-09-30T12:51:49;25.20;66.10
2957;DHT22;1488;51.548;7.222;2022-09-30T12:54:22;25.20;66.00
2957;DHT22;1488;51.548;7.222;2022-09-30T12:56:54;25.20;66.00
2957;DHT22;1488;51.548;7.222;2022-09-30T12:59:25;25.20;66.00
2957;DHT22;1488;51.548;7.222;2022-09-30T13:01:55;25.30;66.10
2957;DHT22;1488;51.548;7.222;2022-09-30T13:04:31;25.30;66.10
2957;DHT22;1488;51.548;7.222;2022-09-30T13:07:20;25.20;65.40
2957;DHT22;1488;51.548;7.222;2022-09-30T13:10:24;25.20;64.60
2957;DHT22;1488;51.548;7.222;2022-09-30T13:13:19;25.10;64.20
2957;DHT22;1488;51.548;7.222;2022-09-30T13:15:48;25.00;64.00
2957;DHT22;1488;51.548;7.222;2022-09-30T13:21:21;25.00;63.80
2957;DHT22;1488;51.548;7.222;2022-09-30T13:23:49;24.90;63.50
2957;DHT22;1488;51.548;7.222;2022-09-30T13:26:38;24.90;63.70
2957;DHT22;1488;51.548;7.222;2022-09-30T13:29:36;24.90;63.70
2957;DHT22;1488;51.548;7.222;2022-09-30T13:32:06;24.90;63.80
2957;DHT22;1488;51.548;7.222;2022-09-30T13:34:51;24.80;63.70
2957;DHT22;1488;51.548;7.222;2022-09-30T13:37:37;24.90;63.80
2957;DHT22;1488;51.548;7.222;2022-09-30T13:40:14;24.90;63.60
2957;DHT22;1488;51.548;7.222;2022-09-30T13:42:50;24.80;63.50
2957;DHT22;1488;51.548;7.222;2022-09-30T13:45:22;24.80;63.60
2957;DHT22;1488;51.548;7.222;2022-09-30T13:48:04;24.80;63.90
2957;DHT22;1488;51.548;7.222;2022-09-30T13:50:41;24.80;63.50
2957;DHT22;1488;51.548;7.222;2022-09-30T13:53:14;24.80;63.50
2957;DHT22;1488;51.548;7.222;2022-09-30T13:55:44;24.70;63.60
2957;DHT22;1488;51.548;7.222;2022-09-30T13:58:37;24.80;63.50
2957;DHT22;1488;51.548;7.222;2022-09-30T14:01:12;24.70;63.20
2957;DHT22;1488;51.548;7.222;2022-09-30T14:04:03;24.70;63.00
2957;DHT22;1488;51.548;7.222;2022-09-30T14:06:42;24.80;63.00
2957;DHT22;1488;51.548;7.222;2022-09-30T14:09:23;24.70;62.80
2957;DHT22;1488;51.548;7.222;2022-09-30T14:12:15;24.70;62.70
2957;DHT22;1488;51.548;7.222;2022-09-30T14:18:02;24.70;62.40
2957;DHT22;1488;51.548;7.222;2022-09-30T14:20:39;24.70;63.00
2957;DHT22;1488;51.548;7.222;2022-09-30T14:23:13;24.70;63.20
2957;DHT22;1488;51.548;7.222;2022-09-30T14:25:47;24.70;63.20
2957;DHT22;1488;51.548;7.222;2022-09-30T14:28:18;24.70;63.00
2957;DHT22;1488;51.548;7.222;2022-09-30T14:30:59;24.70;62.80
2957;DHT22;1488;51.548;7.222;2022-09-30T14:33:37;24.80;62.90
2957;DHT22;1488;51.548;7.222;2022-09-30T14:36:10;24.80;62.70
2957;DHT22;1488;51.548;7.222;2022-09-30T14:38:37;24.90;62.80
2957;DHT22;1488;51.548;7.222;2022-09-30T14:41:13;24.80;62.80
2957;DHT22;1488;51.548;7.222;2022-09-30T14:43:44;24.80;62.80
2957;DHT22;1488;51.548;7.222;2022-09-30T14:46:20;24.80;62.70
2957;DHT22;1488;51.548;7.222;2022-09-30T14:48:51;25.10;62.90
2957;DHT22;1488;51.548;7.222;2022-09-30T14:51:19;24.90;62.90
2957;DHT22;1488;51.548;7.222;2022-09-30T14:54:03;24.90;62.90
2957;DHT22;1488;51.548;7.222;2022-09-30T14:56:33;24.90;63.00
2957;DHT22;1488;51.548;7.222;2022-09-30T14:59:14;24.80;63.10
2957;DHT22;1488;51.548;7.222;2022-09-30T15:01:42;24.90;63.10
2957;DHT22;1488;51.548;7.222;2022-09-30T15:04:13;24.90;63.20
2957;DHT22;1488;51.548;7.222;2022-09-30T15:06:43;24.90;63.10
2957;DHT22;1488;51.548;7.222;2022-09-30T15:09:16;24.90;63.10
2957;DHT22;1488;51.548;7.222;2022-09-30T15:11:43;25.00;63.30
2957;DHT22;1488;51.548;7.222;2022-09-30T15:14:16;24.90;63.20
2957;DHT22;1488;51.548;7.222;2022-09-30T15:27:41;24.80;63.30
2957;DHT22;1488;51.548;7.222;2022-09-30T15:30:22;24.80;62.80
2957;DHT22;1488;51.548;7.222;2022-09-30T15:32:57;24.70;61.90
2957;DHT22;1488;51.548;7.222;2022-09-30T15:35:24;24.70;62.00
2957;DHT22;1488;51.548;7.222;2022-09-30T15:37:51;24.60;62.10
2957;DHT22;1488;51.548;7.222;2022-09-30T15:40:20;24.70;62.30
2957;DHT22;1488;51.548;7.222;2022-09-30T15:43:07;24.70;62.30
2957;DHT22;1488;51.548;7.222;2022-09-30T15:45:37;24.60;62.30
2957;DHT22;1488;51.548;7.222;2022-09-30T15:48:33;24.60;62.40
2957;DHT22;1488;51.548;7.222;2022-09-30T15:54:30;24.60;62.50
2957;DHT22;1488;51.548;7.222;2022-09-30T15:57:01;24.50;62.50
2957;DHT22;1488;51.548;7.222;2022-09-30T15:59:58;24.50;62.70
2957;DHT22;1488;51.548;7.222;2022-09-30T16:02:27;24.50;62.60
2957;DHT22;1488;51.548;7.222;2022-09-30T16:04:55;24.50;62.70
2957;DHT22;1488;51.548;7.222;2022-09-30T16:07:23;24.50;62.70
2957;DHT22;1488;51.548;7.222;2022-09-30T16:09:53;24.50;62.80
2957;DHT22;1488;51.548;7.222;2022-09-30T16:12:23;24.50;62.80
2957;DHT22;1488;51.548;7.222;2022-09-30T16:14:53;24.50;62.80
2957;DHT22;1488;51.548;7.222;2022-09-30T16:17:31;24.50;62.80
2957;DHT22;1488;51.548;7.222;2022-09-30T16:20:21;24.50;62.80
2957;DHT22;1488;51.548;7.222;2022-09-30T16:22:51;24.40;62.80
2957;DHT22;1488;51.548;7.222;2022-09-30T16:25:20;24.40;62.80
2957;DHT22;1488;51.548;7.222;2022-09-30T16:27:52;24.50;62.80
2957;DHT22;1488;51.548;7.222;2022-09-30T16:30:19;24.50;61.80
2957;DHT22;1488;51.548;7.222;2022-09-30T16:32:51;24.40;61.90
2957;DHT22;1488;51.548;7.222;2022-09-30T16:35:21;24.40;62.30
2957;DHT22;1488;51.548;7.222;2022-09-30T16:37:48;24.40;62.60
2957;DHT22;1488;51.548;7.222;2022-09-30T16:40:19;24.50;62.80
2957;DHT22;1488;51.548;7.222;2022-09-30T16:42:56;24.40;62.80
2957;DHT22;1488;51.548;7.222;2022-09-30T16:45:25;24.40;62.80
2957;DHT22;1488;51.548;7.222;2022-09-30T16:47:55;24.40;62.90
2957;DHT22;1488;51.548;7.222;2022-09-30T16:50:29;24.60;63.20
2957;DHT22;1488;51.548;7.222;2022-09-30T16:52:57;24.50;63.00
2957;DHT22;1488;51.548;7.222;2022-09-30T16:55:26;24.40;63.00
2957;DHT22;1488;51.548;7.222;2022-09-30T16:57:54;24.40;63.40
2957;DHT22;1488;51.548;7.222;2022-09-30T17:00:21;24.40;63.80
2957;DHT22;1488;51.548;7.222;2022-09-30T17:02:48;24.40;63.90
2957;DHT22;1488;51.548;7.222;2022-09-30T17:05:19;24.40;64.00
2957;DHT22;1488;51.548;7.222;2022-09-30T17:07:46;24.40;64.10
2957;DHT22;1488;51.548;7.222;2022-09-30T17:10:21;24.40;64.10
2957;DHT22;1488;51.548;7.222;2022-09-30T17:12:48;24.40;64.20
2957;DHT22;1488;51.548;7.222;2022-09-30T17:15:16;24.40;65.00
2957;DHT22;1488;51.548;7.222;2022-09-30T17:17:43;24.40;64.20
2957;DHT22;1488;51.548;7.222;2022-09-30T17:20:09;24.40;64.30
2957;DHT22;1488;51.548;7.222;2022-09-30T17:22:38;24.40;64.30
2957;DHT22;1488;51.548;7.222;2022-09-30T17:25:06;24.40;64.30
2957;DHT22;1488;51.548;7.222;2022-09-30T17:27:33;24.40;64.30